createdAt,value
2022-08-17T00:01:52.732Z,76.75
2022-08-17T00:04:21.736Z,84.70
2022-08-17T00:06:50.754Z,77.63
2022-08-17T00:09:19.530Z,77.15
2022-08-17T00:12:40.799Z,79.63
2022-08-17T00:14:39.977Z,82.05
2022-08-17T00:17:08.345Z,74.75
2022-08-17T00:19:36.773Z,75.30
2022-08-17T00:22:34.726Z,71.45
2022-08-17T00:24:55.722Z,72.18
2022-08-17T00:27:24.124Z,65.03
2022-08-17T00:29:53.769Z,63.10
2022-08-17T00:33:12.614Z,67.00
2022-08-17T00:35:12.665Z,57.03
2022-08-17T00:37:40.943Z,49.40
2022-08-17T00:40:11.849Z,50.25
2022-08-17T00:42:40.578Z,44.90
2022-08-17T00:45:13.246Z,46.47
2022-08-17T00:47:41.834Z,41.50
2022-08-17T00:50:16.986Z,43.50
2022-08-17T00:52:53.487Z,48.00
2022-08-17T00:55:23.913Z,45.15
2022-08-17T00:57:56.546Z,48.00
2022-08-17T01:00:30.182Z,50.50
2022-08-17T01:03:03.109Z,56.50
2022-08-17T01:05:33.397Z,65.70
2022-08-17T01:08:03.515Z,74.18
2022-08-17T01:10:58.383Z,74.18
2022-08-17T01:13:27.693Z,82.65
2022-08-17T01:16:01.588Z,75.03
2022-08-17T01:18:30.143Z,85.97
2022-08-17T01:21:02.147Z,92.60
2022-08-17T01:23:32.110Z,88.18
2022-08-17T01:26:02.861Z,81.18
2022-08-17T01:28:54.003Z,77.07
2022-08-17T01:31:22.854Z,78.28
2022-08-17T01:33:51.630Z,75.75
2022-08-17T01:36:19.844Z,74.00
2022-08-17T01:38:49.574Z,69.88
2022-08-17T01:41:18.451Z,69.35
2022-08-17T01:43:50.489Z,70.47
2022-08-17T01:46:23.179Z,66.40
2022-08-17T01:48:51.640Z,69.82
2022-08-17T01:51:20.261Z,65.35
2022-08-17T01:53:54.028Z,72.03
2022-08-17T01:56:25.358Z,75.65
2022-08-17T01:58:54.086Z,80.45
2022-08-17T02:01:24.653Z,85.65
2022-08-17T02:04:00.652Z,83.45
2022-08-17T02:06:44.925Z,79.80
2022-08-17T02:09:16.964Z,81.00
2022-08-17T02:11:46.480Z,72.22
2022-08-17T02:14:16.224Z,74.55
2022-08-17T02:16:44.494Z,68.05
2022-08-17T02:19:15.648Z,63.28
2022-08-17T02:21:45.447Z,65.93
2022-08-17T02:25:00.749Z,62.72
2022-08-17T02:27:09.018Z,70.47
2022-08-17T02:29:37.393Z,71.10
2022-08-17T02:32:06.239Z,74.50
2022-08-17T02:34:34.697Z,69.75
2022-08-17T02:37:02.923Z,76.68
2022-08-17T02:39:32.512Z,72.95
2022-08-17T02:42:04.316Z,66.43
2022-08-17T02:44:35.423Z,74.90
2022-08-17T02:47:09.464Z,74.90
2022-08-17T02:49:38.285Z,77.82
2022-08-17T02:52:08.423Z,69.78
2022-08-17T02:54:41.190Z,68.40
2022-08-17T02:57:11.176Z,74.68
2022-08-17T02:59:39.680Z,78.30
2022-08-17T03:02:09.267Z,76.45
2022-08-17T03:04:38.306Z,80.40
2022-08-17T03:07:07.130Z,94.82
2022-08-17T03:09:35.555Z,85.22
2022-08-17T03:12:11.053Z,54.15
2022-08-17T03:14:41.776Z,56.17
2022-08-17T03:17:10.955Z,77.53
2022-08-17T03:19:45.764Z,94.03
2022-08-17T03:22:36.457Z,97.65
2022-08-17T03:25:02.889Z,102.88
2022-08-17T03:27:33.763Z,102.68
2022-08-17T03:30:03.327Z,97.43
2022-08-17T03:32:32.125Z,108.25
2022-08-17T03:35:01.585Z,110.70
2022-08-17T03:37:29.917Z,124.20
2022-08-17T03:39:58.417Z,131.38
2022-08-17T03:42:32.382Z,125.47
2022-08-17T03:45:04.022Z,125.15
2022-08-17T03:47:49.262Z,116.15
2022-08-17T03:50:34.450Z,113.95
2022-08-17T03:53:24.757Z,123.65
2022-08-17T03:56:25.293Z,110.28
2022-08-17T03:58:53.627Z,114.75
2022-08-17T04:01:23.303Z,112.82
2022-08-17T04:03:52.154Z,106.53
2022-08-17T04:06:20.818Z,125.57
2022-08-17T04:08:49.149Z,148.98
2022-08-17T04:11:17.450Z,164.88
2022-08-17T04:13:46.146Z,189.35
2022-08-17T04:16:14.539Z,195.95
2022-08-17T04:18:44.065Z,179.50
2022-08-17T04:21:12.533Z,178.98
2022-08-17T04:23:41.523Z,166.68
2022-08-17T04:26:11.070Z,166.20
2022-08-17T04:29:00.661Z,143.88
2022-08-17T04:31:29.426Z,150.43
2022-08-17T04:33:58.839Z,144.25
2022-08-17T04:36:28.246Z,142.70
2022-08-17T04:38:58.280Z,151.25
2022-08-17T04:41:43.947Z,143.75
2022-08-17T04:44:12.576Z,138.35
2022-08-17T04:46:55.359Z,131.93
2022-08-17T04:49:25.304Z,142.90
2022-08-17T04:51:56.854Z,145.43
2022-08-17T04:54:30.002Z,139.65
2022-08-17T04:56:58.410Z,141.63
2022-08-17T04:59:26.742Z,149.98
2022-08-17T05:01:55.698Z,146.23
2022-08-17T05:04:33.646Z,145.18
2022-08-17T05:07:04.576Z,146.13
2022-08-17T05:09:33.620Z,145.98
2022-08-17T05:12:02.418Z,154.07
2022-08-17T05:14:32.440Z,146.77
2022-08-17T05:17:07.354Z,152.93
2022-08-17T05:19:41.192Z,151.98
2022-08-17T05:22:09.658Z,148.63
2022-08-17T05:24:43.713Z,129.80
2022-08-17T05:27:22.825Z,135.10
2022-08-17T05:29:52.138Z,120.18
2022-08-17T05:32:38.550Z,124.78
2022-08-17T05:35:10.944Z,108.35
2022-08-17T05:37:39.391Z,90.35
2022-08-17T05:40:09.896Z,90.65
2022-08-17T05:42:38.476Z,85.20
2022-08-17T05:45:07.521Z,87.88
2022-08-17T05:47:36.007Z,74.20
2022-08-17T05:50:09.678Z,73.57
2022-08-17T05:52:48.775Z,75.50
2022-08-17T05:55:23.415Z,75.72
2022-08-17T05:58:06.117Z,75.53
2022-08-17T06:00:42.107Z,76.35
2022-08-17T06:03:23.539Z,79.95
2022-08-17T06:06:01.296Z,80.95
2022-08-17T06:08:39.572Z,70.38
2022-08-17T06:11:20.523Z,77.95
2022-08-17T06:14:16.562Z,83.28
2022-08-17T06:16:49.058Z,85.20
2022-08-17T06:19:21.221Z,91.80
2022-08-17T06:21:52.141Z,80.47
2022-08-17T06:24:28.482Z,88.00
2022-08-17T06:27:02.635Z,91.07
2022-08-17T06:29:42.185Z,100.95
2022-08-17T06:32:12.854Z,93.57
2022-08-17T06:34:42.327Z,95.32
2022-08-17T06:37:21.256Z,99.22
2022-08-17T06:39:59.605Z,106.07
2022-08-17T06:42:59.919Z,114.40
2022-08-17T06:45:39.035Z,124.25
2022-08-17T06:48:16.938Z,130.02
2022-08-17T06:50:50.126Z,124.45
2022-08-17T06:53:24.633Z,138.60
2022-08-17T06:56:02.188Z,130.20
2022-08-17T06:58:33.409Z,110.72
2022-08-17T07:01:06.780Z,87.20
2022-08-17T07:03:39.700Z,82.38
2022-08-17T07:06:13.500Z,69.63
2022-08-17T07:08:50.417Z,65.55
2022-08-17T07:11:27.139Z,63.10
2022-08-17T07:14:04.441Z,62.72
2022-08-17T07:16:46.692Z,55.63
2022-08-17T07:19:17.310Z,49.97
2022-08-17T07:21:55.002Z,48.75
2022-08-17T07:24:37.326Z,42.33
2022-08-17T07:27:12.923Z,38.90
2022-08-17T07:29:46.579Z,42.63
2022-08-17T07:32:19.221Z,44.17
2022-08-17T07:35:11.527Z,48.25
2022-08-17T07:37:40.994Z,52.53
2022-08-17T07:40:22.264Z,46.15
2022-08-17T07:43:19.914Z,42.72
2022-08-17T07:46:14.949Z,43.08
2022-08-17T07:48:45.005Z,43.78
2022-08-17T07:51:25.606Z,47.90
2022-08-17T07:54:04.776Z,42.50
2022-08-17T07:56:45.362Z,49.13
2022-08-17T07:59:18.366Z,45.85
2022-08-17T08:02:08.159Z,40.10
2022-08-17T08:07:32.057Z,43.22
2022-08-17T08:10:10.978Z,44.38
2022-08-17T08:12:42.050Z,45.08
2022-08-17T08:15:18.939Z,40.05
2022-08-17T08:17:52.189Z,41.60
2022-08-17T08:20:52.496Z,35.90
2022-08-17T08:23:28.633Z,34.60
2022-08-17T08:26:09.092Z,42.03
2022-08-17T08:28:47.115Z,39.78
2022-08-17T08:31:25.356Z,43.50
2022-08-17T08:34:05.901Z,45.47
2022-08-17T08:37:14.063Z,46.55
2022-08-17T08:39:48.375Z,37.38
2022-08-17T08:42:25.724Z,36.15
2022-08-17T08:45:04.396Z,39.17
2022-08-17T08:48:12.811Z,43.65
2022-08-17T08:51:05.313Z,46.92
2022-08-17T08:53:45.657Z,54.70
2022-08-17T08:56:21.230Z,54.33
2022-08-17T08:58:55.942Z,53.58
2022-08-17T09:01:31.997Z,60.53
2022-08-17T09:04:24.118Z,61.90
2022-08-17T09:07:03.195Z,68.72
2022-08-17T09:09:39.367Z,74.82
2022-08-17T09:12:15.476Z,75.32
2022-08-17T09:14:50.930Z,82.93
2022-08-17T09:17:22.621Z,81.65
2022-08-17T09:19:57.338Z,84.20
2022-08-17T09:22:32.234Z,78.90
2022-08-17T09:25:08.028Z,79.78
2022-08-17T09:27:54.976Z,83.05
2022-08-17T09:30:24.950Z,79.47
2022-08-17T09:32:58.713Z,82.05
2022-08-17T09:35:37.054Z,80.97
2022-08-17T09:38:20.642Z,81.07
2022-08-17T09:40:53.932Z,85.95
2022-08-17T09:43:31.728Z,115.35
2022-08-17T09:46:03.634Z,99.05
2022-08-17T09:48:36.853Z,92.30
2022-08-17T09:51:13.809Z,82.72
2022-08-17T09:53:44.762Z,80.80
2022-08-17T09:56:30.947Z,83.93
2022-08-17T09:59:28.252Z,81.22
2022-08-17T10:02:26.452Z,80.28
2022-08-17T10:05:03.348Z,82.18
2022-08-17T10:07:38.043Z,79.82
2022-08-17T10:10:15.015Z,73.53
2022-08-17T10:12:53.145Z,70.55
2022-08-17T10:15:31.459Z,70.95
2022-08-17T10:18:19.934Z,73.10
2022-08-17T10:21:15.832Z,68.00
2022-08-17T10:24:05.824Z,76.40
2022-08-17T10:26:40.272Z,70.38
2022-08-17T10:29:21.039Z,68.88
2022-08-17T10:31:52.235Z,69.15
2022-08-17T10:34:55.552Z,59.75
2022-08-17T10:37:53.494Z,67.18
2022-08-17T10:40:37.924Z,70.97
2022-08-17T10:43:23.138Z,57.83
2022-08-17T10:46:29.927Z,59.78
2022-08-17T10:49:22.931Z,59.55
2022-08-17T10:51:54.398Z,52.53
2022-08-17T10:54:47.347Z,48.60
2022-08-17T10:57:36.440Z,45.85
2022-08-17T11:00:10.251Z,46.53
2022-08-17T11:02:50.896Z,48.03
2022-08-17T11:05:44.427Z,50.95
2022-08-17T11:08:59.317Z,56.10
2022-08-17T11:11:47.934Z,56.22
2022-08-17T11:14:30.660Z,62.38
2022-08-17T11:17:11.391Z,62.53
2022-08-17T11:20:05.817Z,63.75
2022-08-17T11:23:31.304Z,61.28
2022-08-17T11:26:08.597Z,61.40
2022-08-17T11:28:48.862Z,60.60
2022-08-17T11:31:38.539Z,66.60
2022-08-17T11:34:15.852Z,70.32
2022-08-17T11:37:07.634Z,79.80
2022-08-17T11:40:06.500Z,69.53
2022-08-17T11:42:50.716Z,82.10
2022-08-17T11:45:39.845Z,75.80
2022-08-17T11:48:35.166Z,72.68
2022-08-17T11:51:30.346Z,82.10
2022-08-17T11:54:31.748Z,83.15
2022-08-17T11:56:59.394Z,83.13
2022-08-17T11:59:58.879Z,86.78
2022-08-17T12:02:39.094Z,84.65
2022-08-17T12:05:33.271Z,91.63
2022-08-17T12:08:09.122Z,98.30
2022-08-17T12:10:42.388Z,93.30
2022-08-17T12:13:15.723Z,92.90
2022-08-17T12:15:50.387Z,104.78
2022-08-17T12:18:24.630Z,95.78
2022-08-17T12:21:20.611Z,87.78
2022-08-17T12:23:57.326Z,89.93
2022-08-17T12:26:30.415Z,88.43
2022-08-17T12:29:02.750Z,89.30
2022-08-17T12:31:43.260Z,93.93
2022-08-17T12:34:17.168Z,95.55
2022-08-17T12:36:46.013Z,94.07
2022-08-17T12:39:21.604Z,97.00
2022-08-17T12:42:02.015Z,97.55
2022-08-17T12:44:33.315Z,83.45
2022-08-17T12:47:07.554Z,89.57
2022-08-17T12:49:37.945Z,72.47
2022-08-17T12:52:17.983Z,56.33
2022-08-17T12:54:51.239Z,49.45
2022-08-17T12:57:22.852Z,47.80
2022-08-17T12:59:55.485Z,42.95
2022-08-17T13:02:38.831Z,43.50
2022-08-17T13:05:10.468Z,43.25
2022-08-17T13:07:43.550Z,36.97
2022-08-17T13:10:22.127Z,40.90
2022-08-17T13:12:52.514Z,41.60
2022-08-17T13:15:29.547Z,34.42
2022-08-17T13:18:03.975Z,37.97
2022-08-17T13:20:32.741Z,36.03
2022-08-17T13:23:11.414Z,32.95
2022-08-17T13:25:40.823Z,32.05
2022-08-17T13:28:30.717Z,31.70
2022-08-17T13:31:25.205Z,30.67
2022-08-17T13:34:09.907Z,32.05
2022-08-17T13:36:39.945Z,32.60
2022-08-17T13:39:16.220Z,33.40
2022-08-17T13:41:45.105Z,35.00
2022-08-17T13:44:34.674Z,32.05
2022-08-17T13:47:04.224Z,31.80
2022-08-17T13:49:48.508Z,33.13
2022-08-17T13:52:37.970Z,34.90
2022-08-17T13:55:10.342Z,30.95
2022-08-17T13:57:39.109Z,33.67
2022-08-17T14:00:17.469Z,32.70
2022-08-17T14:02:46.384Z,33.03
2022-08-17T14:05:16.355Z,32.33
2022-08-17T14:07:45.345Z,30.70
2022-08-17T14:10:18.317Z,34.20
2022-08-17T14:12:52.681Z,33.83
2022-08-17T14:15:24.603Z,35.88
2022-08-17T14:18:13.218Z,34.60
2022-08-17T14:20:43.013Z,32.83
2022-08-17T14:23:11.993Z,35.58
2022-08-17T14:25:40.913Z,37.22
2022-08-17T14:28:09.458Z,35.20
2022-08-17T14:30:38.169Z,36.10
2022-08-17T14:33:08.351Z,36.00
2022-08-17T14:35:36.794Z,35.78
2022-08-17T14:38:07.132Z,36.65
2022-08-17T14:40:36.933Z,33.60
2022-08-17T14:43:05.574Z,32.53
2022-08-17T14:45:34.153Z,34.65
2022-08-17T14:48:05.732Z,34.92
2022-08-17T14:50:35.537Z,36.42
2022-08-17T14:53:06.555Z,38.10
2022-08-17T14:55:35.044Z,38.00
2022-08-17T14:58:04.379Z,37.75
2022-08-17T15:00:32.960Z,34.88
2022-08-17T15:03:02.281Z,36.97
2022-08-17T15:05:33.665Z,38.30
2022-08-17T15:08:03.877Z,39.03
2022-08-17T15:10:34.396Z,39.63
2022-08-17T15:13:03.060Z,42.55
2022-08-17T15:15:31.731Z,43.17
2022-08-17T15:18:01.026Z,41.88
2022-08-17T15:20:30.717Z,42.95
2022-08-17T15:22:59.543Z,42.17
2022-08-17T15:25:31.907Z,44.75
2022-08-17T15:28:02.303Z,48.03
2022-08-17T15:30:31.740Z,45.55
2022-08-17T15:33:00.999Z,48.13
2022-08-17T15:35:32.267Z,47.53
2022-08-17T15:38:08.034Z,45.15
2022-08-17T15:40:40.918Z,44.40
2022-08-17T15:43:13.818Z,43.80
2022-08-17T15:45:42.310Z,44.67
2022-08-17T15:48:11.324Z,46.30
2022-08-17T15:50:39.689Z,40.55
2022-08-17T15:53:08.178Z,41.17
2022-08-17T15:55:38.615Z,35.95
2022-08-17T15:58:07.208Z,34.42
2022-08-17T16:00:49.396Z,33.17
2022-08-17T16:04:01.841Z,32.53
2022-08-17T16:06:11.309Z,32.17
2022-08-17T16:08:41.582Z,32.25
2022-08-17T16:11:11.038Z,31.55
2022-08-17T16:13:39.877Z,30.30
2022-08-17T16:16:10.658Z,30.38
2022-08-17T16:18:40.573Z,28.02
2022-08-17T16:21:42.823Z,27.00
2022-08-17T16:24:13.293Z,26.38
2022-08-17T16:26:42.182Z,28.20
2022-08-17T16:29:10.695Z,28.30
2022-08-17T16:31:41.826Z,26.40
2022-08-17T16:34:17.458Z,25.55
2022-08-17T16:36:55.539Z,25.58
2022-08-17T16:39:25.645Z,25.38
2022-08-17T16:41:54.160Z,24.00
2022-08-17T16:44:23.213Z,26.30
2022-08-17T16:46:52.657Z,24.80
2022-08-17T16:49:35.537Z,24.15
2022-08-17T16:52:06.458Z,24.80
2022-08-17T16:54:35.405Z,23.10
2022-08-17T16:57:05.224Z,22.63
2022-08-17T16:59:41.834Z,23.23
2022-08-17T17:02:15.589Z,21.88
2022-08-17T17:04:50.600Z,22.98
2022-08-17T17:07:42.196Z,25.95
2022-08-17T17:10:13.885Z,22.33
2022-08-17T17:13:03.974Z,20.67
2022-08-17T17:15:42.583Z,22.08
2022-08-17T17:18:14.828Z,23.35
2022-08-17T17:20:48.702Z,20.77
2022-08-17T17:23:35.227Z,21.23
2022-08-17T17:26:13.269Z,21.58
2022-08-17T17:28:51.099Z,20.63
2022-08-17T17:31:23.831Z,21.23
2022-08-17T17:33:57.583Z,21.35
2022-08-17T17:36:30.570Z,20.58
2022-08-17T17:39:05.077Z,21.17
2022-08-17T17:41:38.270Z,20.05
2022-08-17T17:44:09.460Z,19.58
2022-08-17T17:46:41.095Z,20.60
2022-08-17T17:49:14.089Z,21.13
2022-08-17T17:52:06.548Z,21.55
2022-08-17T17:55:01.863Z,21.48
2022-08-17T17:57:39.447Z,22.05
2022-08-17T18:00:11.989Z,22.92
2022-08-17T18:02:52.775Z,22.42
2022-08-17T18:05:52.493Z,22.30
2022-08-17T18:08:34.686Z,18.67
2022-08-17T18:11:14.105Z,18.75
2022-08-17T18:13:57.331Z,17.58
2022-08-17T18:16:29.572Z,17.45
2022-08-17T18:19:01.422Z,17.95
2022-08-17T18:21:39.248Z,16.77
2022-08-17T18:24:10.505Z,17.48
2022-08-17T18:26:50.501Z,16.20
2022-08-17T18:29:39.806Z,14.38
2022-08-17T18:32:16.189Z,14.35
2022-08-17T18:34:47.559Z,13.10
2022-08-17T18:37:35.343Z,10.60
2022-08-17T18:40:31.247Z,10.65
2022-08-17T18:43:25.938Z,12.20
2022-08-17T18:45:56.803Z,12.52
2022-08-17T18:48:32.856Z,12.32
2022-08-17T18:51:06.356Z,12.98
2022-08-17T18:53:40.737Z,12.75
2022-08-17T18:56:33.884Z,12.95
2022-08-17T18:59:24.180Z,13.77
2022-08-17T19:02:45.022Z,14.50
2022-08-17T19:05:14.293Z,15.57
2022-08-17T19:07:44.304Z,14.88
2022-08-17T19:10:20.948Z,14.82
2022-08-17T19:12:53.724Z,14.18
2022-08-17T19:15:28.555Z,17.55
2022-08-17T19:18:01.652Z,16.90
2022-08-17T19:20:35.350Z,13.52
2022-08-17T19:23:17.085Z,11.48
2022-08-17T19:25:52.694Z,11.02
2022-08-17T19:28:24.650Z,13.45
2022-08-17T19:30:57.828Z,12.68
2022-08-17T19:33:27.324Z,10.77
2022-08-17T19:36:12.279Z,12.23
2022-08-17T19:38:49.105Z,14.60
2022-08-17T19:41:24.668Z,11.13
2022-08-17T19:44:07.802Z,10.38
2022-08-17T19:46:48.544Z,13.20
2022-08-17T19:49:40.259Z,11.57
2022-08-17T19:52:27.467Z,13.93
2022-08-17T19:55:02.137Z,13.23
2022-08-17T19:57:43.390Z,12.25
2022-08-17T20:00:15.078Z,14.40
2022-08-17T20:02:50.919Z,12.45
2022-08-17T20:05:23.758Z,13.10
2022-08-17T20:07:56.333Z,14.35
2022-08-17T20:10:45.141Z,15.70
2022-08-17T20:13:32.778Z,15.70
2022-08-17T20:16:02.951Z,15.82
2022-08-17T20:18:43.965Z,15.65
2022-08-17T20:21:22.371Z,17.17
2022-08-17T20:23:54.905Z,16.85
2022-08-17T20:26:27.317Z,17.33
2022-08-17T20:29:29.540Z,18.42
2022-08-17T20:32:25.243Z,18.05
2022-08-17T20:35:17.210Z,20.33
2022-08-17T20:37:53.932Z,17.70
2022-08-17T20:40:29.221Z,20.80
2022-08-17T20:42:58.853Z,21.52
2022-08-17T20:46:08.835Z,23.02
2022-08-17T20:48:42.300Z,22.52
2022-08-17T20:51:27.146Z,21.02
2022-08-17T20:54:16.177Z,23.75
2022-08-17T20:56:57.284Z,25.15
2022-08-17T21:00:14.042Z,21.63
2022-08-17T21:02:45.710Z,23.50
2022-08-17T21:05:38.283Z,26.38
2022-08-17T21:08:15.940Z,27.05
2022-08-17T21:10:46.585Z,27.70
2022-08-17T21:13:35.701Z,28.30
2022-08-17T21:16:26.895Z,28.10
2022-08-17T21:19:07.530Z,28.17
2022-08-17T21:21:59.119Z,25.90
2022-08-17T21:24:38.323Z,32.63
2022-08-17T21:27:24.609Z,26.20
2022-08-17T21:30:13.605Z,26.42
2022-08-17T21:32:44.625Z,29.92
2022-08-17T21:35:47.631Z,32.63
2022-08-17T21:38:19.567Z,27.35
2022-08-17T21:40:50.657Z,31.20
2022-08-17T21:43:25.128Z,29.95
2022-08-17T21:46:00.734Z,32.47
2022-08-17T21:48:30.890Z,34.42
2022-08-17T21:51:08.412Z,31.27
2022-08-17T21:53:41.347Z,29.08
2022-08-17T21:56:11.909Z,31.73
2022-08-17T21:58:45.402Z,29.02
2022-08-17T22:01:28.173Z,32.90
2022-08-17T22:04:00.675Z,33.97
2022-08-17T22:06:35.147Z,31.63
2022-08-17T22:09:16.703Z,33.28
2022-08-17T22:12:06.909Z,28.98
2022-08-17T22:14:51.658Z,37.13
2022-08-17T22:17:24.173Z,34.90
2022-08-17T22:19:56.349Z,32.25
2022-08-17T22:22:31.253Z,37.53
2022-08-17T22:25:03.267Z,33.80
2022-08-17T22:27:54.438Z,34.72
2022-08-17T22:30:35.683Z,39.78
2022-08-17T22:33:36.436Z,33.50
2022-08-17T22:36:22.635Z,38.85
2022-08-17T22:38:51.953Z,35.67
2022-08-17T22:41:42.509Z,36.83
2022-08-17T22:44:18.386Z,37.53
2022-08-17T22:46:58.800Z,37.15
2022-08-17T22:49:31.978Z,39.92
2022-08-17T22:52:32.093Z,39.22
2022-08-17T22:55:30.335Z,39.42
2022-08-17T22:58:16.520Z,38.70
2022-08-17T23:00:46.534Z,38.72
2022-08-17T23:03:19.034Z,35.50
2022-08-17T23:06:03.411Z,35.30
2022-08-17T23:08:34.592Z,38.92
2022-08-17T23:11:06.396Z,37.83
2022-08-17T23:13:34.761Z,39.47
2022-08-17T23:16:03.415Z,45.17
2022-08-17T23:18:31.685Z,41.55
2022-08-17T23:21:01.211Z,46.40
2022-08-17T23:23:31.537Z,41.70
2022-08-17T23:25:59.767Z,41.55
2022-08-17T23:28:28.525Z,44.75
2022-08-17T23:30:56.963Z,49.30
2022-08-17T23:33:29.875Z,44.15
2022-08-17T23:35:58.856Z,41.47
2022-08-17T23:38:28.767Z,44.80
2022-08-17T23:40:59.959Z,44.08
2022-08-17T23:43:30.378Z,43.30
2022-08-17T23:46:00.636Z,48.05
2022-08-17T23:48:35.938Z,42.70
2022-08-17T23:51:08.978Z,41.83
2022-08-17T23:53:44.015Z,38.13
2022-08-17T23:56:12.390Z,41.78
2022-08-17T23:58:42.208Z,37.72
